sensor_id;sensor_type;location;lat;lon;timestamp;pressure;altitude;pressure_sealevel;temperature;humidity
71956;BME280;59829;50.562;6.258;2022-07-29T00:07:25;95710.22;;;21.01;49.47
71956;BME280;59829;50.562;6.258;2022-07-29T00:17:25;95703.38;;;21.00;50.11
71956;BME280;59829;50.562;6.258;2022-07-29T00:27:26;95686.16;;;20.99;50.57
71956;BME280;59829;50.562;6.258;2022-07-29T00:37:26;95673.28;;;20.91;50.60
71956;BME280;59829;50.562;6.258;2022-07-29T00:47:29;95663.91;;;21.24;49.80
71956;BME280;59829;50.562;6.258;2022-07-29T00:57:30;95657.19;;;20.81;50.36
71956;BME280;59829;50.562;6.258;2022-07-29T01:07:31;95652.25;;;20.92;49.92
71956;BME280;59829;50.562;6.258;2022-07-29T01:17:43;95636.63;;;21.20;49.55
71956;BME280;59829;50.562;6.258;2022-07-29T01:38:20;95637.44;;;20.93;50.82
71956;BME280;59829;50.562;6.258;2022-07-29T01:48:37;95616.13;;;21.11;51.25
71956;BME280;59829;50.562;6.258;2022-07-29T01:58:41;95609.09;;;20.76;51.02
71956;BME280;59829;50.562;6.258;2022-07-29T02:08:49;95615.06;;;20.70;51.72
71956;BME280;59829;50.562;6.258;2022-07-29T02:18:52;95615.81;;;20.64;51.34
71956;BME280;59829;50.562;6.258;2022-07-29T02:28:57;95616.56;;;20.37;51.82
71956;BME280;59829;50.562;6.258;2022-07-29T02:38:59;95612.75;;;20.33;50.48
71956;BME280;59829;50.562;6.258;2022-07-29T02:49:12;95614.72;;;20.80;49.66
71956;BME280;59829;50.562;6.258;2022-07-29T02:59:17;95613.06;;;20.72;50.21
71956;BME280;59829;50.562;6.258;2022-07-29T03:09:27;95611.44;;;20.43;51.46
71956;BME280;59829;50.562;6.258;2022-07-29T03:19:31;95611.44;;;20.22;52.13
71956;BME280;59829;50.562;6.258;2022-07-29T09:38:16;95749.63;;;21.82;56.43
71956;BME280;59829;50.562;6.258;2022-07-29T10:00:04;95745.78;;;22.19;54.45
71956;BME280;59829;50.562;6.258;2022-07-29T10:31:13;95750.78;;;22.75;55.32
71956;BME280;59829;50.562;6.258;2022-07-29T11:46:50;95765.88;;;24.23;48.78
71956;BME280;59829;50.562;6.258;2022-07-29T11:57:49;95754.63;;;24.16;46.22
71956;BME280;59829;50.562;6.258;2022-07-29T12:07:53;95759.94;;;23.90;48.02
71956;BME280;59829;50.562;6.258;2022-07-29T12:18:26;95734.75;;;24.47;46.48
71956;BME280;59829;50.562;6.258;2022-07-29T12:28:50;95748.09;;;24.39;46.09
71956;BME280;59829;50.562;6.258;2022-07-29T12:38:58;95747.69;;;24.42;47.37
71956;BME280;59829;50.562;6.258;2022-07-29T12:48:59;95747.59;;;24.10;46.07
71956;BME280;59829;50.562;6.258;2022-07-29T12:59:11;95748.22;;;24.57;46.41
71956;BME280;59829;50.562;6.258;2022-07-29T13:09:39;95747.41;;;24.88;45.87
71956;BME280;59829;50.562;6.258;2022-07-29T13:20:13;95751.41;;;24.90;45.34
71956;BME280;59829;50.562;6.258;2022-07-29T13:41:30;95776.44;;;24.86;46.30
71956;BME280;59829;50.562;6.258;2022-07-29T14:03:10;95767.72;;;25.24;46.94
71956;BME280;59829;50.562;6.258;2022-07-29T14:13:59;95766.69;;;25.25;44.48
71956;BME280;59829;50.562;6.258;2022-07-29T14:24:36;95781.41;;;25.26;44.86
71956;BME280;59829;50.562;6.258;2022-07-29T14:45:25;95785.28;;;24.54;45.76
71956;BME280;59829;50.562;6.258;2022-07-29T15:06:31;95800.41;;;25.21;46.32
71956;BME280;59829;50.562;6.258;2022-07-29T15:16:35;95798.56;;;24.59;45.04
71956;BME280;59829;50.562;6.258;2022-07-29T21:03:37;95966.13;;;22.79;49.33
71956;BME280;59829;50.562;6.258;2022-07-29T21:13:46;95998.28;;;22.79;49.54
71956;BME280;59829;50.562;6.258;2022-07-29T21:23:57;95999.72;;;23.30;49.81
71956;BME280;59829;50.562;6.258;2022-07-29T21:34:05;96000.59;;;22.61;50.20
71956;BME280;59829;50.562;6.258;2022-07-29T21:44:07;96007.34;;;22.55;50.32
71956;BME280;59829;50.562;6.258;2022-07-29T21:54:07;96007.28;;;22.42;50.52
71956;BME280;59829;50.562;6.258;2022-07-29T22:04:08;96008.81;;;22.30;50.48
71956;BME280;59829;50.562;6.258;2022-07-29T22:14:08;96003.09;;;22.20;50.21
71956;BME280;59829;50.562;6.258;2022-07-29T22:24:09;95990.97;;;22.06;50.65
71956;BME280;59829;50.562;6.258;2022-07-29T22:34:10;95989.38;;;22.05;49.85
71956;BME280;59829;50.562;6.258;2022-07-29T22:44:13;95979.25;;;22.02;50.99
71956;BME280;59829;50.562;6.258;2022-07-29T22:54:13;95974.69;;;21.82;50.23
71956;BME280;59829;50.562;6.258;2022-07-29T23:04:14;95971.72;;;21.64;50.66
71956;BME280;59829;50.562;6.258;2022-07-29T23:14:14;95972.25;;;21.53;50.97
71956;BME280;59829;50.562;6.258;2022-07-29T23:24:15;95969.75;;;21.45;50.76
71956;BME280;59829;50.562;6.258;2022-07-29T23:34:15;95948.66;;;21.40;50.79
71956;BME280;59829;50.562;6.258;2022-07-29T23:44:16;95945.44;;;21.38;50.41
71956;BME280;59829;50.562;6.258;2022-07-29T23:54:16;95943.28;;;21.26;51.31
